createdAt,value
2023-01-13T00:03:19.636Z,990.13
2023-01-13T00:08:19.582Z,990.01
2023-01-13T00:13:19.513Z,990.01
2023-01-13T00:18:19.445Z,990.02
2023-01-13T00:23:19.379Z,990.10
2023-01-13T00:28:19.315Z,990.15
2023-01-13T00:33:19.256Z,990.18
2023-01-13T00:38:19.174Z,990.01
2023-01-13T00:43:19.110Z,989.97
2023-01-13T00:48:19.044Z,990.00
2023-01-13T00:53:18.979Z,989.94
2023-01-13T00:58:18.898Z,989.91
2023-01-13T01:03:18.836Z,989.92
2023-01-13T01:08:18.782Z,989.98
2023-01-13T01:13:18.699Z,990.07
2023-01-13T01:18:18.625Z,990.02
2023-01-13T01:23:18.562Z,990.00
2023-01-13T01:28:18.521Z,990.03
2023-01-13T01:33:18.432Z,990.09
2023-01-13T01:38:18.371Z,990.10
2023-01-13T01:43:18.303Z,990.09
2023-01-13T01:48:18.227Z,990.02
2023-01-13T01:53:18.157Z,990.04
2023-01-13T01:58:18.124Z,989.91
2023-01-13T02:03:18.043Z,989.91
2023-01-13T02:08:17.980Z,989.79
2023-01-13T02:13:17.911Z,989.81
2023-01-13T02:18:17.832Z,989.79
2023-01-13T02:23:17.772Z,989.79
2023-01-13T02:28:17.709Z,989.76
2023-01-13T02:33:17.639Z,989.61
2023-01-13T02:38:17.562Z,989.63
2023-01-13T02:43:17.495Z,989.48
2023-01-13T02:48:17.431Z,989.47
2023-01-13T02:53:17.358Z,989.39
2023-01-13T02:58:17.303Z,989.36
2023-01-13T03:03:17.090Z,989.33
2023-01-13T03:08:17.033Z,989.30
2023-01-13T03:13:16.961Z,989.26
2023-01-13T03:18:16.896Z,989.33
2023-01-13T03:23:16.830Z,989.30
2023-01-13T03:28:16.769Z,989.17
2023-01-13T03:33:16.687Z,989.18
2023-01-13T03:38:16.639Z,989.24
2023-01-13T03:43:16.556Z,989.21
2023-01-13T03:48:16.505Z,989.10
2023-01-13T03:53:16.438Z,989.06
2023-01-13T03:58:16.420Z,989.13
2023-01-13T04:03:16.294Z,989.12
2023-01-13T04:08:16.230Z,989.04
2023-01-13T04:13:16.155Z,989.08
2023-01-13T04:18:16.098Z,989.00
2023-01-13T04:23:16.041Z,988.94
2023-01-13T04:28:15.964Z,988.92
2023-01-13T04:33:15.891Z,988.95
2023-01-13T04:38:15.836Z,988.91
2023-01-13T04:43:16.026Z,988.86
2023-01-13T04:48:15.700Z,988.82
2023-01-13T04:53:15.656Z,988.81
2023-01-13T04:58:15.563Z,988.81
2023-01-13T05:03:15.500Z,988.79
2023-01-13T05:08:15.428Z,988.73
2023-01-13T05:13:15.363Z,988.81
2023-01-13T05:18:15.297Z,988.81
2023-01-13T05:23:15.220Z,988.81
2023-01-13T05:28:15.170Z,988.72
2023-01-13T05:33:15.089Z,988.71
2023-01-13T05:38:15.036Z,988.82
2023-01-13T05:43:14.951Z,988.79
2023-01-13T05:48:14.896Z,988.84
2023-01-13T05:53:14.819Z,988.74
2023-01-13T05:58:14.784Z,988.78
2023-01-13T06:03:14.798Z,988.78
2023-01-13T06:08:14.624Z,988.79
2023-01-13T06:13:14.552Z,988.81
2023-01-13T06:18:14.496Z,988.76
2023-01-13T06:23:14.418Z,988.75
2023-01-13T06:28:14.357Z,988.74
2023-01-13T06:33:14.289Z,988.76
2023-01-13T06:38:14.221Z,988.85
2023-01-13T06:43:16.155Z,988.91
2023-01-13T06:48:14.090Z,989.01
2023-01-13T06:53:14.016Z,989.02
2023-01-13T06:58:13.966Z,989.69
2023-01-13T07:03:13.878Z,989.87
2023-01-13T07:08:13.818Z,990.00
2023-01-13T07:13:13.743Z,990.13
2023-01-13T07:18:13.685Z,990.27
2023-01-13T07:23:13.608Z,990.32
2023-01-13T07:28:13.548Z,990.28
2023-01-13T07:33:13.479Z,990.31
2023-01-13T07:38:13.416Z,990.33
2023-01-13T07:43:13.339Z,990.42
2023-01-13T07:48:13.279Z,990.06
2023-01-13T07:53:13.204Z,989.94
2023-01-13T07:58:13.146Z,990.08
2023-01-13T08:03:13.071Z,989.94
2023-01-13T08:08:13.012Z,989.91
2023-01-13T08:13:12.945Z,989.70
2023-01-13T08:18:12.880Z,989.78
2023-01-13T08:23:12.820Z,989.82
2023-01-13T08:28:12.754Z,990.00
2023-01-13T08:33:12.675Z,990.21
2023-01-13T08:38:12.617Z,990.37
2023-01-13T08:43:12.543Z,990.34
2023-01-13T08:48:12.481Z,990.14
2023-01-13T08:53:12.427Z,990.07
2023-01-13T08:58:15.726Z,990.43
2023-01-13T09:03:12.276Z,990.37
2023-01-13T09:08:12.232Z,990.46
2023-01-13T09:13:12.145Z,990.39
2023-01-13T09:18:12.100Z,989.96
2023-01-13T09:23:12.027Z,989.56
2023-01-13T09:28:11.958Z,989.73
2023-01-13T09:33:11.879Z,990.24
2023-01-13T09:38:11.836Z,990.36
2023-01-13T09:43:11.751Z,990.29
2023-01-13T09:48:11.689Z,990.39
2023-01-13T09:53:11.619Z,990.32
2023-01-13T09:58:11.600Z,990.35
2023-01-13T10:03:11.530Z,990.39
2023-01-13T10:08:11.424Z,990.35
2023-01-13T10:13:11.346Z,990.39
2023-01-13T10:18:11.325Z,990.41
2023-01-13T10:23:11.218Z,990.43
2023-01-13T10:28:11.160Z,990.45
2023-01-13T10:33:11.088Z,990.49
2023-01-13T10:38:11.027Z,990.40
2023-01-13T10:43:10.948Z,990.53
2023-01-13T10:48:10.892Z,990.54
2023-01-13T10:53:10.818Z,990.58
2023-01-13T10:58:10.759Z,990.54
2023-01-13T11:03:10.683Z,990.50
2023-01-13T11:08:10.643Z,990.51
2023-01-13T11:13:10.550Z,990.65
2023-01-13T11:18:10.493Z,990.76
2023-01-13T11:23:10.417Z,990.75
2023-01-13T11:28:10.356Z,990.70
2023-01-13T11:33:10.333Z,990.79
2023-01-13T11:38:10.220Z,990.72
2023-01-13T11:43:10.348Z,990.69
2023-01-13T11:48:10.338Z,990.66
2023-01-13T11:53:10.317Z,990.74
2023-01-13T11:58:10.360Z,990.78
2023-01-13T12:03:10.448Z,990.83
2023-01-13T12:08:10.423Z,990.79
2023-01-13T12:13:09.749Z,990.84
2023-01-13T12:18:09.694Z,990.85
2023-01-13T12:23:09.616Z,990.86
2023-01-13T12:28:09.555Z,990.91
2023-01-13T12:33:09.480Z,990.75
2023-01-13T12:38:09.422Z,990.93
2023-01-13T12:43:09.350Z,990.85
2023-01-13T12:48:09.292Z,990.80
2023-01-13T12:53:09.217Z,990.84
2023-01-13T12:58:09.158Z,991.12
2023-01-13T13:03:09.091Z,991.12
2023-01-13T13:08:09.021Z,991.03
2023-01-13T13:13:08.969Z,991.04
2023-01-13T13:18:08.883Z,991.06
2023-01-13T13:23:08.833Z,991.06
2023-01-13T13:28:08.750Z,991.16
2023-01-13T13:33:08.695Z,991.30
2023-01-13T13:38:08.616Z,991.31
2023-01-13T13:43:08.557Z,991.37
2023-01-13T13:48:08.486Z,991.51
2023-01-13T13:53:08.431Z,991.56
2023-01-13T13:58:08.346Z,991.63
2023-01-13T14:03:08.297Z,991.66
2023-01-13T14:08:08.178Z,991.70
2023-01-13T14:13:08.115Z,991.70
2023-01-13T14:18:08.032Z,991.75
2023-01-13T14:23:08.014Z,991.72
2023-01-13T14:28:07.908Z,991.64
2023-01-13T14:33:07.826Z,991.69
2023-01-13T14:38:07.748Z,991.64
2023-01-13T14:43:07.700Z,991.68
2023-01-13T14:48:07.605Z,991.63
2023-01-13T14:53:07.545Z,991.58
2023-01-13T14:58:07.468Z,991.60
2023-01-13T15:03:07.501Z,991.68
2023-01-13T15:08:07.354Z,991.51
2023-01-13T15:13:07.281Z,991.53
2023-01-13T15:18:07.258Z,991.57
2023-01-13T15:23:07.134Z,991.67
2023-01-13T15:28:07.089Z,991.69
2023-01-13T15:33:07.001Z,991.73
2023-01-13T15:38:06.930Z,991.81
2023-01-13T15:43:06.872Z,991.78
2023-01-13T15:48:06.793Z,991.85
2023-01-13T15:53:06.736Z,991.97
2023-01-13T15:58:06.658Z,992.09
2023-01-13T16:03:06.636Z,992.17
2023-01-13T16:08:06.541Z,992.20
2023-01-13T16:13:06.478Z,992.32
2023-01-13T16:18:06.411Z,992.30
2023-01-13T16:23:06.369Z,992.22
2023-01-13T16:28:06.296Z,992.26
2023-01-13T16:33:06.248Z,992.41
2023-01-13T16:38:06.184Z,992.48
2023-01-13T16:43:06.132Z,992.43
2023-01-13T16:48:06.065Z,992.52
2023-01-13T16:53:06.021Z,992.61
2023-01-13T16:58:05.945Z,992.69
2023-01-13T17:03:05.896Z,992.82
2023-01-13T17:08:05.816Z,992.90
2023-01-13T17:13:15.678Z,993.17
2023-01-13T17:18:05.685Z,993.17
2023-01-13T17:23:05.628Z,993.13
2023-01-13T17:28:05.573Z,993.22
2023-01-13T17:33:05.493Z,993.33
2023-01-13T17:38:05.423Z,993.50
2023-01-13T17:43:05.366Z,993.55
2023-01-13T17:48:05.289Z,993.62
2023-01-13T17:53:05.227Z,993.72
2023-01-13T17:58:05.156Z,993.72
2023-01-13T18:03:05.133Z,993.84
2023-01-13T18:08:05.015Z,993.86
2023-01-13T18:13:04.957Z,993.96
2023-01-13T18:18:05.012Z,993.98
2023-01-13T18:23:04.823Z,994.01
2023-01-13T18:28:04.753Z,994.04
2023-01-13T18:33:04.704Z,994.02
2023-01-13T18:38:04.626Z,994.07
2023-01-13T18:43:04.558Z,994.19
2023-01-13T18:48:04.493Z,994.15
2023-01-13T18:53:04.425Z,993.97
2023-01-13T18:58:04.355Z,994.08
2023-01-13T19:08:04.226Z,994.22
2023-01-13T19:13:04.174Z,994.31
2023-01-13T19:18:04.094Z,994.32
2023-01-13T19:23:04.034Z,994.52
2023-01-13T19:28:03.957Z,994.57
2023-01-13T19:33:03.898Z,994.57
2023-01-13T19:38:03.830Z,994.74
2023-01-13T19:43:03.766Z,994.68
2023-01-13T19:48:03.702Z,994.75
2023-01-13T19:53:03.634Z,994.90
2023-01-13T19:58:03.574Z,994.97
2023-01-13T20:03:03.662Z,995.07
2023-01-13T20:08:03.433Z,995.16
2023-01-13T20:13:03.369Z,995.29
2023-01-13T20:18:03.293Z,995.42
2023-01-13T20:23:03.235Z,995.53
2023-01-13T20:28:03.163Z,995.59
2023-01-13T20:33:03.125Z,995.63
2023-01-13T20:38:03.034Z,995.67
2023-01-13T20:43:02.965Z,995.72
2023-01-13T20:48:02.893Z,995.81
2023-01-13T20:53:02.833Z,995.87
2023-01-13T20:58:02.761Z,995.77
2023-01-13T21:03:02.708Z,995.85
2023-01-13T21:08:02.626Z,995.86
2023-01-13T21:13:02.568Z,995.94
2023-01-13T21:18:02.494Z,995.95
2023-01-13T21:23:02.452Z,996.03
2023-01-13T21:28:02.361Z,996.11
2023-01-13T21:33:02.301Z,996.24
2023-01-13T21:38:02.227Z,996.28
2023-01-13T21:43:02.168Z,996.40
2023-01-13T21:48:02.125Z,996.23
2023-01-13T21:53:02.035Z,996.36
2023-01-13T21:58:01.961Z,996.40
2023-01-13T22:03:01.910Z,996.50
2023-01-13T22:08:01.836Z,996.75
2023-01-13T22:13:01.768Z,996.81
2023-01-13T22:18:01.696Z,997.02
2023-01-13T22:23:01.635Z,997.07
2023-01-13T22:28:01.571Z,997.21
2023-01-13T22:33:01.562Z,997.14
2023-01-13T22:38:01.435Z,997.18
2023-01-13T22:43:01.397Z,997.21
2023-01-13T22:48:01.296Z,997.17
2023-01-13T22:53:01.235Z,997.29
2023-01-13T22:58:01.169Z,997.40
2023-01-13T23:03:01.104Z,997.46
2023-01-13T23:08:01.028Z,997.50
2023-01-13T23:13:00.973Z,997.56
2023-01-13T23:18:00.897Z,997.45
2023-01-13T23:23:00.851Z,997.57
2023-01-13T23:28:00.769Z,997.52
2023-01-13T23:33:00.708Z,997.47
2023-01-13T23:38:00.631Z,997.47
2023-01-13T23:43:00.580Z,997.47
2023-01-13T23:48:00.532Z,997.48
2023-01-13T23:53:00.437Z,997.48
2023-01-13T23:58:00.363Z,997.54
